sensor_id;sensor_type;location;lat;lon;timestamp;P1;durP1;ratioP1;P2;durP2;ratioP2
52964;SDS011;42923;53.220;6.528;2022-11-11T00:02:39;15.45;;;7.13;;
52964;SDS011;42923;53.220;6.528;2022-11-11T00:05:23;13.50;;;6.55;;
52964;SDS011;42923;53.220;6.528;2022-11-11T00:08:08;12.90;;;6.18;;
52964;SDS011;42923;53.220;6.528;2022-11-11T00:10:52;12.50;;;6.25;;
52964;SDS011;42923;53.220;6.528;2022-11-11T00:13:42;17.45;;;7.18;;
52964;SDS011;42923;53.220;6.528;2022-11-11T00:16:26;15.80;;;7.47;;
52964;SDS011;42923;53.220;6.528;2022-11-11T00:19:30;10.88;;;6.75;;
52964;SDS011;42923;53.220;6.528;2022-11-11T00:22:44;14.52;;;7.88;;
52964;SDS011;42923;53.220;6.528;2022-11-11T00:25:52;10.40;;;6.18;;
52964;SDS011;42923;53.220;6.528;2022-11-11T00:28:47;16.40;;;8.38;;
52964;SDS011;42923;53.220;6.528;2022-11-11T00:31:31;10.73;;;5.68;;
52964;SDS011;42923;53.220;6.528;2022-11-11T00:37:01;19.50;;;8.32;;
52964;SDS011;42923;53.220;6.528;2022-11-11T00:39:46;14.30;;;7.53;;
52964;SDS011;42923;53.220;6.528;2022-11-11T00:42:30;16.63;;;6.93;;
52964;SDS011;42923;53.220;6.528;2022-11-11T00:45:14;15.07;;;7.30;;
52964;SDS011;42923;53.220;6.528;2022-11-11T00:47:58;13.50;;;8.35;;
52964;SDS011;42923;53.220;6.528;2022-11-11T00:51:02;15.50;;;8.73;;
52964;SDS011;42923;53.220;6.528;2022-11-11T00:53:47;14.82;;;8.27;;
52964;SDS011;42923;53.220;6.528;2022-11-11T00:56:31;12.90;;;6.93;;
52964;SDS011;42923;53.220;6.528;2022-11-11T00:59:16;13.05;;;6.57;;
52964;SDS011;42923;53.220;6.528;2022-11-11T01:02:00;15.75;;;7.78;;
52964;SDS011;42923;53.220;6.528;2022-11-11T01:04:44;12.80;;;7.50;;
52964;SDS011;42923;53.220;6.528;2022-11-11T01:07:28;23.00;;;8.95;;
52964;SDS011;42923;53.220;6.528;2022-11-11T01:10:12;13.40;;;7.47;;
52964;SDS011;42923;53.220;6.528;2022-11-11T01:13:18;13.00;;;8.02;;
52964;SDS011;42923;53.220;6.528;2022-11-11T01:16:05;11.63;;;6.28;;
52964;SDS011;42923;53.220;6.528;2022-11-11T01:18:51;14.07;;;8.13;;
52964;SDS011;42923;53.220;6.528;2022-11-11T01:21:36;16.27;;;7.82;;
52964;SDS011;42923;53.220;6.528;2022-11-11T01:24:21;17.80;;;8.20;;
52964;SDS011;42923;53.220;6.528;2022-11-11T01:27:05;15.68;;;8.00;;
52964;SDS011;42923;53.220;6.528;2022-11-11T01:29:50;15.25;;;8.50;;
52964;SDS011;42923;53.220;6.528;2022-11-11T01:32:34;11.77;;;6.50;;
52964;SDS011;42923;53.220;6.528;2022-11-11T01:35:18;17.08;;;10.05;;
52964;SDS011;42923;53.220;6.528;2022-11-11T01:38:02;17.52;;;9.07;;
52964;SDS011;42923;53.220;6.528;2022-11-11T01:40:47;19.05;;;8.55;;
52964;SDS011;42923;53.220;6.528;2022-11-11T01:43:32;17.25;;;9.25;;
52964;SDS011;42923;53.220;6.528;2022-11-11T01:46:22;17.98;;;7.57;;
52964;SDS011;42923;53.220;6.528;2022-11-11T01:52:38;15.32;;;8.27;;
52964;SDS011;42923;53.220;6.528;2022-11-11T01:55:25;14.63;;;7.45;;
52964;SDS011;42923;53.220;6.528;2022-11-11T01:58:10;15.57;;;9.40;;
52964;SDS011;42923;53.220;6.528;2022-11-11T02:00:57;16.48;;;8.40;;
52964;SDS011;42923;53.220;6.528;2022-11-11T02:03:43;14.07;;;6.93;;
52964;SDS011;42923;53.220;6.528;2022-11-11T02:06:50;18.67;;;9.88;;
52964;SDS011;42923;53.220;6.528;2022-11-11T02:09:38;12.13;;;8.43;;
52964;SDS011;42923;53.220;6.528;2022-11-11T02:12:25;16.13;;;8.60;;
52964;SDS011;42923;53.220;6.528;2022-11-11T02:15:28;15.48;;;9.07;;
52964;SDS011;42923;53.220;6.528;2022-11-11T02:18:12;15.60;;;8.65;;
52964;SDS011;42923;53.220;6.528;2022-11-11T02:20:56;18.77;;;9.07;;
52964;SDS011;42923;53.220;6.528;2022-11-11T02:26:37;13.98;;;8.52;;
52964;SDS011;42923;53.220;6.528;2022-11-11T02:29:22;19.05;;;9.88;;
52964;SDS011;42923;53.220;6.528;2022-11-11T02:32:07;13.52;;;7.13;;
52964;SDS011;42923;53.220;6.528;2022-11-11T02:34:51;16.38;;;7.80;;
52964;SDS011;42923;53.220;6.528;2022-11-11T02:37:35;11.10;;;8.15;;
52964;SDS011;42923;53.220;6.528;2022-11-11T02:40:21;16.40;;;10.38;;
52964;SDS011;42923;53.220;6.528;2022-11-11T02:43:19;19.02;;;10.07;;
52964;SDS011;42923;53.220;6.528;2022-11-11T02:46:04;16.73;;;10.68;;
52964;SDS011;42923;53.220;6.528;2022-11-11T02:48:49;14.40;;;9.55;;
52964;SDS011;42923;53.220;6.528;2022-11-11T02:51:33;20.90;;;11.50;;
52964;SDS011;42923;53.220;6.528;2022-11-11T02:54:17;17.27;;;10.90;;
52964;SDS011;42923;53.220;6.528;2022-11-11T02:57:02;18.02;;;10.35;;
52964;SDS011;42923;53.220;6.528;2022-11-11T02:59:52;17.08;;;9.82;;
52964;SDS011;42923;53.220;6.528;2022-11-11T03:02:37;17.25;;;10.23;;
52964;SDS011;42923;53.220;6.528;2022-11-11T03:05:21;21.17;;;12.45;;
52964;SDS011;42923;53.220;6.528;2022-11-11T03:08:06;16.30;;;11.00;;
52964;SDS011;42923;53.220;6.528;2022-11-11T03:10:50;15.18;;;10.27;;
52964;SDS011;42923;53.220;6.528;2022-11-11T03:13:34;15.52;;;11.25;;
52964;SDS011;42923;53.220;6.528;2022-11-11T03:16:19;22.65;;;13.05;;
52964;SDS011;42923;53.220;6.528;2022-11-11T03:19:30;20.35;;;13.43;;
52964;SDS011;42923;53.220;6.528;2022-11-11T03:22:14;21.83;;;13.40;;
52964;SDS011;42923;53.220;6.528;2022-11-11T03:24:58;21.17;;;12.65;;
52964;SDS011;42923;53.220;6.528;2022-11-11T03:28:01;21.80;;;14.57;;
52964;SDS011;42923;53.220;6.528;2022-11-11T03:30:46;24.60;;;15.55;;
52964;SDS011;42923;53.220;6.528;2022-11-11T03:36:16;17.33;;;11.75;;
52964;SDS011;42923;53.220;6.528;2022-11-11T03:39:00;15.52;;;11.57;;
52964;SDS011;42923;53.220;6.528;2022-11-11T03:41:44;21.65;;;15.60;;
52964;SDS011;42923;53.220;6.528;2022-11-11T03:44:28;21.70;;;13.85;;
52964;SDS011;42923;53.220;6.528;2022-11-11T03:47:13;25.13;;;16.55;;
52964;SDS011;42923;53.220;6.528;2022-11-11T03:49:59;21.42;;;15.77;;
52964;SDS011;42923;53.220;6.528;2022-11-11T03:52:43;27.63;;;16.38;;
52964;SDS011;42923;53.220;6.528;2022-11-11T03:55:27;20.90;;;15.80;;
52964;SDS011;42923;53.220;6.528;2022-11-11T03:58:12;23.13;;;16.33;;
52964;SDS011;42923;53.220;6.528;2022-11-11T04:00:57;24.85;;;16.15;;
52964;SDS011;42923;53.220;6.528;2022-11-11T04:03:41;24.05;;;17.10;;
52964;SDS011;42923;53.220;6.528;2022-11-11T04:06:44;22.88;;;14.15;;
52964;SDS011;42923;53.220;6.528;2022-11-11T04:09:47;26.20;;;17.25;;
52964;SDS011;42923;53.220;6.528;2022-11-11T04:13:10;33.15;;;18.75;;
52964;SDS011;42923;53.220;6.528;2022-11-11T04:16:14;22.95;;;16.63;;
52964;SDS011;42923;53.220;6.528;2022-11-11T04:18:58;25.80;;;17.92;;
52964;SDS011;42923;53.220;6.528;2022-11-11T04:22:02;25.35;;;15.98;;
52964;SDS011;42923;53.220;6.528;2022-11-11T04:24:46;27.80;;;18.50;;
52964;SDS011;42923;53.220;6.528;2022-11-11T04:27:49;28.20;;;16.02;;
52964;SDS011;42923;53.220;6.528;2022-11-11T04:30:54;25.58;;;18.42;;
52964;SDS011;42923;53.220;6.528;2022-11-11T04:33:38;24.88;;;16.80;;
52964;SDS011;42923;53.220;6.528;2022-11-11T04:36:22;28.95;;;17.85;;
52964;SDS011;42923;53.220;6.528;2022-11-11T04:39:06;31.92;;;17.88;;
52964;SDS011;42923;53.220;6.528;2022-11-11T04:42:09;25.73;;;19.30;;
52964;SDS011;42923;53.220;6.528;2022-11-11T04:44:53;29.23;;;17.25;;
52964;SDS011;42923;53.220;6.528;2022-11-11T04:47:57;31.63;;;16.02;;
52964;SDS011;42923;53.220;6.528;2022-11-11T04:50:48;20.45;;;15.38;;
52964;SDS011;42923;53.220;6.528;2022-11-11T04:53:32;24.02;;;13.40;;
52964;SDS011;42923;53.220;6.528;2022-11-11T04:56:16;21.67;;;16.52;;
52964;SDS011;42923;53.220;6.528;2022-11-11T04:59:19;24.58;;;18.20;;
52964;SDS011;42923;53.220;6.528;2022-11-11T05:02:03;31.80;;;15.93;;
52964;SDS011;42923;53.220;6.528;2022-11-11T05:05:06;28.60;;;18.45;;
52964;SDS011;42923;53.220;6.528;2022-11-11T05:07:50;28.40;;;19.52;;
52964;SDS011;42923;53.220;6.528;2022-11-11T05:10:54;28.08;;;22.20;;
52964;SDS011;42923;53.220;6.528;2022-11-11T05:13:38;28.25;;;18.73;;
52964;SDS011;42923;53.220;6.528;2022-11-11T05:16:42;26.27;;;18.30;;
52964;SDS011;42923;53.220;6.528;2022-11-11T05:19:47;25.73;;;19.25;;
52964;SDS011;42923;53.220;6.528;2022-11-11T05:22:51;29.70;;;21.17;;
52964;SDS011;42923;53.220;6.528;2022-11-11T05:25:35;35.42;;;21.80;;
52964;SDS011;42923;53.220;6.528;2022-11-11T05:28:19;23.38;;;15.25;;
52964;SDS011;42923;53.220;6.528;2022-11-11T05:31:04;35.90;;;22.13;;
52964;SDS011;42923;53.220;6.528;2022-11-11T05:33:48;31.98;;;18.98;;
52964;SDS011;42923;53.220;6.528;2022-11-11T05:36:32;32.03;;;18.80;;
52964;SDS011;42923;53.220;6.528;2022-11-11T05:39:16;27.85;;;18.17;;
52964;SDS011;42923;53.220;6.528;2022-11-11T05:42:00;29.80;;;20.42;;
52964;SDS011;42923;53.220;6.528;2022-11-11T05:44:45;27.90;;;17.30;;
52964;SDS011;42923;53.220;6.528;2022-11-11T05:47:29;27.58;;;19.15;;
52964;SDS011;42923;53.220;6.528;2022-11-11T05:50:13;27.88;;;19.60;;
52964;SDS011;42923;53.220;6.528;2022-11-11T05:52:58;31.23;;;22.05;;
52964;SDS011;42923;53.220;6.528;2022-11-11T05:55:42;31.83;;;18.15;;
52964;SDS011;42923;53.220;6.528;2022-11-11T05:58:26;28.50;;;17.98;;
52964;SDS011;42923;53.220;6.528;2022-11-11T06:01:10;28.35;;;19.67;;
52964;SDS011;42923;53.220;6.528;2022-11-11T06:03:54;35.17;;;21.15;;
52964;SDS011;42923;53.220;6.528;2022-11-11T06:06:39;29.00;;;16.55;;
52964;SDS011;42923;53.220;6.528;2022-11-11T06:09:23;34.38;;;20.52;;
52964;SDS011;42923;53.220;6.528;2022-11-11T06:12:08;29.55;;;16.27;;
52964;SDS011;42923;53.220;6.528;2022-11-11T06:14:52;36.88;;;21.38;;
52964;SDS011;42923;53.220;6.528;2022-11-11T06:17:36;31.73;;;21.45;;
52964;SDS011;42923;53.220;6.528;2022-11-11T06:20:21;28.83;;;19.40;;
52964;SDS011;42923;53.220;6.528;2022-11-11T06:23:05;27.27;;;20.05;;
52964;SDS011;42923;53.220;6.528;2022-11-11T06:25:50;29.00;;;19.17;;
52964;SDS011;42923;53.220;6.528;2022-11-11T06:28:54;30.33;;;19.25;;
52964;SDS011;42923;53.220;6.528;2022-11-11T06:31:38;23.98;;;15.00;;
52964;SDS011;42923;53.220;6.528;2022-11-11T06:34:23;28.27;;;18.70;;
52964;SDS011;42923;53.220;6.528;2022-11-11T06:37:08;29.17;;;18.80;;
52964;SDS011;42923;53.220;6.528;2022-11-11T06:39:52;34.83;;;18.90;;
52964;SDS011;42923;53.220;6.528;2022-11-11T06:42:36;25.50;;;16.42;;
52964;SDS011;42923;53.220;6.528;2022-11-11T06:45:21;21.73;;;17.17;;
52964;SDS011;42923;53.220;6.528;2022-11-11T06:48:07;27.90;;;18.70;;
52964;SDS011;42923;53.220;6.528;2022-11-11T06:50:52;27.33;;;17.77;;
52964;SDS011;42923;53.220;6.528;2022-11-11T06:53:38;37.17;;;20.42;;
52964;SDS011;42923;53.220;6.528;2022-11-11T06:56:22;31.70;;;19.67;;
52964;SDS011;42923;53.220;6.528;2022-11-11T06:59:06;27.65;;;19.50;;
52964;SDS011;42923;53.220;6.528;2022-11-11T07:01:50;30.15;;;19.02;;
52964;SDS011;42923;53.220;6.528;2022-11-11T07:04:34;27.73;;;19.35;;
52964;SDS011;42923;53.220;6.528;2022-11-11T07:07:19;30.25;;;19.58;;
52964;SDS011;42923;53.220;6.528;2022-11-11T07:10:03;30.25;;;18.58;;
52964;SDS011;42923;53.220;6.528;2022-11-11T07:15:34;31.75;;;21.00;;
52964;SDS011;42923;53.220;6.528;2022-11-11T07:18:19;27.52;;;20.83;;
52964;SDS011;42923;53.220;6.528;2022-11-11T07:21:03;33.30;;;20.95;;
52964;SDS011;42923;53.220;6.528;2022-11-11T07:23:47;26.48;;;19.02;;
52964;SDS011;42923;53.220;6.528;2022-11-11T07:26:31;30.27;;;20.48;;
52964;SDS011;42923;53.220;6.528;2022-11-11T07:29:16;38.00;;;20.55;;
52964;SDS011;42923;53.220;6.528;2022-11-11T07:32:00;32.65;;;21.80;;
52964;SDS011;42923;53.220;6.528;2022-11-11T07:34:45;32.30;;;20.20;;
52964;SDS011;42923;53.220;6.528;2022-11-11T07:37:29;29.73;;;21.50;;
52964;SDS011;42923;53.220;6.528;2022-11-11T07:40:15;30.45;;;21.75;;
52964;SDS011;42923;53.220;6.528;2022-11-11T07:43:00;31.45;;;20.85;;
52964;SDS011;42923;53.220;6.528;2022-11-11T07:45:44;38.63;;;22.02;;
52964;SDS011;42923;53.220;6.528;2022-11-11T07:48:28;30.95;;;21.30;;
52964;SDS011;42923;53.220;6.528;2022-11-11T07:51:13;29.38;;;20.65;;
52964;SDS011;42923;53.220;6.528;2022-11-11T07:53:57;31.05;;;19.13;;
52964;SDS011;42923;53.220;6.528;2022-11-11T07:56:41;29.17;;;19.92;;
52964;SDS011;42923;53.220;6.528;2022-11-11T07:59:25;28.80;;;18.92;;
52964;SDS011;42923;53.220;6.528;2022-11-11T08:02:10;30.00;;;18.88;;
52964;SDS011;42923;53.220;6.528;2022-11-11T08:04:55;32.42;;;21.10;;
52964;SDS011;42923;53.220;6.528;2022-11-11T08:07:39;29.88;;;22.42;;
52964;SDS011;42923;53.220;6.528;2022-11-11T08:10:25;29.80;;;19.38;;
52964;SDS011;42923;53.220;6.528;2022-11-11T08:13:09;35.90;;;20.38;;
52964;SDS011;42923;53.220;6.528;2022-11-11T08:16:13;31.52;;;22.25;;
52964;SDS011;42923;53.220;6.528;2022-11-11T08:18:58;27.65;;;18.45;;
52964;SDS011;42923;53.220;6.528;2022-11-11T08:21:42;32.67;;;21.05;;
52964;SDS011;42923;53.220;6.528;2022-11-11T08:24:26;26.67;;;16.88;;
52964;SDS011;42923;53.220;6.528;2022-11-11T08:27:10;29.27;;;17.65;;
52964;SDS011;42923;53.220;6.528;2022-11-11T08:29:55;28.85;;;20.33;;
52964;SDS011;42923;53.220;6.528;2022-11-11T08:32:39;32.00;;;19.50;;
52964;SDS011;42923;53.220;6.528;2022-11-11T08:35:23;30.58;;;19.58;;
52964;SDS011;42923;53.220;6.528;2022-11-11T08:38:08;26.15;;;19.83;;
52964;SDS011;42923;53.220;6.528;2022-11-11T08:40:52;32.10;;;20.55;;
52964;SDS011;42923;53.220;6.528;2022-11-11T08:43:36;26.30;;;16.55;;
52964;SDS011;42923;53.220;6.528;2022-11-11T08:46:21;27.25;;;18.23;;
52964;SDS011;42923;53.220;6.528;2022-11-11T08:49:06;33.40;;;20.27;;
52964;SDS011;42923;53.220;6.528;2022-11-11T08:51:51;29.90;;;18.30;;
52964;SDS011;42923;53.220;6.528;2022-11-11T08:54:35;35.30;;;19.98;;
52964;SDS011;42923;53.220;6.528;2022-11-11T08:57:20;30.10;;;20.02;;
52964;SDS011;42923;53.220;6.528;2022-11-11T09:00:05;25.58;;;17.92;;
52964;SDS011;42923;53.220;6.528;2022-11-11T09:02:49;23.08;;;16.15;;
52964;SDS011;42923;53.220;6.528;2022-11-11T09:05:36;26.77;;;18.45;;
52964;SDS011;42923;53.220;6.528;2022-11-11T09:08:21;23.70;;;15.70;;
52964;SDS011;42923;53.220;6.528;2022-11-11T09:11:05;29.48;;;17.55;;
52964;SDS011;42923;53.220;6.528;2022-11-11T09:13:49;31.95;;;19.90;;
52964;SDS011;42923;53.220;6.528;2022-11-11T09:16:33;22.58;;;16.33;;
52964;SDS011;42923;53.220;6.528;2022-11-11T09:19:17;25.95;;;18.30;;
52964;SDS011;42923;53.220;6.528;2022-11-11T09:22:01;33.38;;;17.63;;
52964;SDS011;42923;53.220;6.528;2022-11-11T09:24:46;27.75;;;17.13;;
52964;SDS011;42923;53.220;6.528;2022-11-11T09:27:30;22.52;;;16.13;;
52964;SDS011;42923;53.220;6.528;2022-11-11T09:30:14;28.92;;;18.38;;
52964;SDS011;42923;53.220;6.528;2022-11-11T09:33:02;27.67;;;18.08;;
52964;SDS011;42923;53.220;6.528;2022-11-11T09:35:47;26.20;;;14.00;;
52964;SDS011;42923;53.220;6.528;2022-11-11T09:38:31;28.02;;;18.35;;
52964;SDS011;42923;53.220;6.528;2022-11-11T09:41:19;27.85;;;18.58;;
52964;SDS011;42923;53.220;6.528;2022-11-11T09:44:08;29.08;;;20.73;;
52964;SDS011;42923;53.220;6.528;2022-11-11T09:47:20;23.05;;;16.35;;
52964;SDS011;42923;53.220;6.528;2022-11-11T09:50:09;26.55;;;16.73;;
52964;SDS011;42923;53.220;6.528;2022-11-11T09:52:59;26.25;;;18.50;;
52964;SDS011;42923;53.220;6.528;2022-11-11T09:56:14;27.63;;;19.17;;
52964;SDS011;42923;53.220;6.528;2022-11-11T10:01:58;22.42;;;15.05;;
52964;SDS011;42923;53.220;6.528;2022-11-11T10:05:04;20.83;;;14.13;;
52964;SDS011;42923;53.220;6.528;2022-11-11T10:13:29;26.65;;;17.40;;
52964;SDS011;42923;53.220;6.528;2022-11-11T10:16:38;27.55;;;17.52;;
52964;SDS011;42923;53.220;6.528;2022-11-11T10:19:33;26.88;;;19.25;;
52964;SDS011;42923;53.220;6.528;2022-11-11T10:22:29;30.10;;;18.67;;
52964;SDS011;42923;53.220;6.528;2022-11-11T10:25:21;24.27;;;16.25;;
52964;SDS011;42923;53.220;6.528;2022-11-11T10:28:08;24.70;;;15.15;;
52964;SDS011;42923;53.220;6.528;2022-11-11T10:30:59;28.58;;;17.50;;
52964;SDS011;42923;53.220;6.528;2022-11-11T10:33:53;22.42;;;15.88;;
52964;SDS011;42923;53.220;6.528;2022-11-11T10:36:46;23.17;;;14.18;;
52964;SDS011;42923;53.220;6.528;2022-11-11T10:42:48;26.38;;;17.30;;
52964;SDS011;42923;53.220;6.528;2022-11-11T10:45:48;27.20;;;17.10;;
52964;SDS011;42923;53.220;6.528;2022-11-11T10:48:57;25.58;;;17.85;;
52964;SDS011;42923;53.220;6.528;2022-11-11T10:51:58;26.92;;;18.30;;
52964;SDS011;42923;53.220;6.528;2022-11-11T10:54:53;25.92;;;18.08;;
52964;SDS011;42923;53.220;6.528;2022-11-11T10:57:49;25.67;;;17.10;;
52964;SDS011;42923;53.220;6.528;2022-11-11T11:00:38;23.33;;;17.15;;
52964;SDS011;42923;53.220;6.528;2022-11-11T11:03:31;26.23;;;17.40;;
52964;SDS011;42923;53.220;6.528;2022-11-11T11:06:29;21.73;;;15.95;;
52964;SDS011;42923;53.220;6.528;2022-11-11T11:09:19;22.13;;;16.02;;
52964;SDS011;42923;53.220;6.528;2022-11-11T11:12:13;26.83;;;16.25;;
52964;SDS011;42923;53.220;6.528;2022-11-11T11:15:08;24.00;;;13.60;;
52964;SDS011;42923;53.220;6.528;2022-11-11T11:18:07;19.17;;;14.35;;
52964;SDS011;42923;53.220;6.528;2022-11-11T11:20:59;22.48;;;15.57;;
52964;SDS011;42923;53.220;6.528;2022-11-11T11:23:48;19.33;;;14.60;;
52964;SDS011;42923;53.220;6.528;2022-11-11T11:27:15;20.65;;;14.70;;
52964;SDS011;42923;53.220;6.528;2022-11-11T11:29:43;21.02;;;14.90;;
52964;SDS011;42923;53.220;6.528;2022-11-11T11:32:28;21.23;;;14.60;;
52964;SDS011;42923;53.220;6.528;2022-11-11T11:38:16;22.38;;;15.55;;
52964;SDS011;42923;53.220;6.528;2022-11-11T11:41:01;17.88;;;10.15;;
52964;SDS011;42923;53.220;6.528;2022-11-11T11:43:45;21.00;;;13.27;;
52964;SDS011;42923;53.220;6.528;2022-11-11T11:46:34;21.08;;;11.00;;
52964;SDS011;42923;53.220;6.528;2022-11-11T11:55:14;22.23;;;15.20;;
52964;SDS011;42923;53.220;6.528;2022-11-11T11:58:17;18.13;;;12.38;;
52964;SDS011;42923;53.220;6.528;2022-11-11T12:06:49;19.40;;;14.07;;
52964;SDS011;42923;53.220;6.528;2022-11-11T12:09:42;23.10;;;15.38;;
52964;SDS011;42923;53.220;6.528;2022-11-11T12:21:55;21.75;;;15.45;;
52964;SDS011;42923;53.220;6.528;2022-11-11T12:27:57;20.95;;;14.65;;
52964;SDS011;42923;53.220;6.528;2022-11-11T12:37:48;19.70;;;14.70;;
52964;SDS011;42923;53.220;6.528;2022-11-11T12:43:50;20.10;;;16.25;;
52964;SDS011;42923;53.220;6.528;2022-11-11T12:49:52;20.85;;;15.50;;
52964;SDS011;42923;53.220;6.528;2022-11-11T12:58:37;14.52;;;12.10;;
52964;SDS011;42923;53.220;6.528;2022-11-11T13:10:58;23.98;;;16.90;;
52964;SDS011;42923;53.220;6.528;2022-11-11T13:17:10;20.05;;;13.95;;
52964;SDS011;42923;53.220;6.528;2022-11-11T13:23:26;20.77;;;16.05;;
52964;SDS011;42923;53.220;6.528;2022-11-11T13:26:15;22.98;;;14.15;;
52964;SDS011;42923;53.220;6.528;2022-11-11T13:32:21;22.88;;;14.55;;
52964;SDS011;42923;53.220;6.528;2022-11-11T13:41:32;19.40;;;14.60;;
52964;SDS011;42923;53.220;6.528;2022-11-11T13:44:30;26.60;;;16.52;;
52964;SDS011;42923;53.220;6.528;2022-11-11T13:47:37;21.77;;;16.17;;
52964;SDS011;42923;53.220;6.528;2022-11-11T13:50:28;20.48;;;16.17;;
52964;SDS011;42923;53.220;6.528;2022-11-11T13:53:15;25.50;;;17.98;;
52964;SDS011;42923;53.220;6.528;2022-11-11T13:56:10;20.15;;;17.45;;
52964;SDS011;42923;53.220;6.528;2022-11-11T13:59:00;22.33;;;16.92;;
52964;SDS011;42923;53.220;6.528;2022-11-11T14:01:45;22.80;;;17.48;;
52964;SDS011;42923;53.220;6.528;2022-11-11T14:04:29;24.83;;;18.50;;
52964;SDS011;42923;53.220;6.528;2022-11-11T14:16:06;18.15;;;13.25;;
52964;SDS011;42923;53.220;6.528;2022-11-11T14:18:53;16.10;;;10.77;;
52964;SDS011;42923;53.220;6.528;2022-11-11T14:24:45;18.42;;;12.07;;
52964;SDS011;42923;53.220;6.528;2022-11-11T14:27:31;26.70;;;15.27;;
52964;SDS011;42923;53.220;6.528;2022-11-11T14:30:31;19.50;;;15.30;;
52964;SDS011;42923;53.220;6.528;2022-11-11T14:33:35;22.08;;;15.32;;
52964;SDS011;42923;53.220;6.528;2022-11-11T14:39:37;24.15;;;16.20;;
52964;SDS011;42923;53.220;6.528;2022-11-11T14:51:42;21.70;;;16.08;;
52964;SDS011;42923;53.220;6.528;2022-11-11T14:54:41;22.45;;;16.10;;
52964;SDS011;42923;53.220;6.528;2022-11-11T14:57:46;19.52;;;15.20;;
52964;SDS011;42923;53.220;6.528;2022-11-11T15:00:43;20.23;;;15.52;;
52964;SDS011;42923;53.220;6.528;2022-11-11T15:06:23;23.27;;;16.00;;
52964;SDS011;42923;53.220;6.528;2022-11-11T15:21:31;21.43;;;16.93;;
52964;SDS011;42923;53.220;6.528;2022-11-11T15:30:22;22.02;;;15.10;;
52964;SDS011;42923;53.220;6.528;2022-11-11T15:33:27;22.30;;;14.70;;
52964;SDS011;42923;53.220;6.528;2022-11-11T15:39:47;22.33;;;15.68;;
52964;SDS011;42923;53.220;6.528;2022-11-11T15:42:38;19.30;;;15.32;;
52964;SDS011;42923;53.220;6.528;2022-11-11T15:45:32;20.08;;;15.45;;
52964;SDS011;42923;53.220;6.528;2022-11-11T15:48:20;22.48;;;15.82;;
52964;SDS011;42923;53.220;6.528;2022-11-11T16:03:12;24.27;;;16.75;;
52964;SDS011;42923;53.220;6.528;2022-11-11T16:06:02;22.27;;;14.88;;
52964;SDS011;42923;53.220;6.528;2022-11-11T16:08:50;22.02;;;16.65;;
52964;SDS011;42923;53.220;6.528;2022-11-11T16:11:37;18.40;;;11.18;;
52964;SDS011;42923;53.220;6.528;2022-11-11T16:14:41;23.65;;;17.63;;
52964;SDS011;42923;53.220;6.528;2022-11-11T16:17:28;20.60;;;15.65;;
52964;SDS011;42923;53.220;6.528;2022-11-11T16:20:18;24.73;;;16.30;;
52964;SDS011;42923;53.220;6.528;2022-11-11T16:23:07;25.67;;;16.73;;
52964;SDS011;42923;53.220;6.528;2022-11-11T16:25:52;23.90;;;17.08;;
52964;SDS011;42923;53.220;6.528;2022-11-11T16:28:38;25.15;;;16.60;;
52964;SDS011;42923;53.220;6.528;2022-11-11T16:37:12;21.33;;;16.25;;
52964;SDS011;42923;53.220;6.528;2022-11-11T16:43:24;22.25;;;17.50;;
52964;SDS011;42923;53.220;6.528;2022-11-11T16:52:24;22.98;;;16.02;;
52964;SDS011;42923;53.220;6.528;2022-11-11T16:55:10;23.05;;;17.00;;
52964;SDS011;42923;53.220;6.528;2022-11-11T16:58:17;25.45;;;17.70;;
52964;SDS011;42923;53.220;6.528;2022-11-11T17:01:03;27.00;;;17.95;;
52964;SDS011;42923;53.220;6.528;2022-11-11T17:03:58;25.13;;;17.15;;
52964;SDS011;42923;53.220;6.528;2022-11-11T17:06:50;27.65;;;18.77;;
52964;SDS011;42923;53.220;6.528;2022-11-11T17:09:39;28.70;;;19.08;;
52964;SDS011;42923;53.220;6.528;2022-11-11T17:12:30;25.13;;;16.67;;
52964;SDS011;42923;53.220;6.528;2022-11-11T17:15:15;24.08;;;18.52;;
52964;SDS011;42923;53.220;6.528;2022-11-11T17:18:02;26.70;;;18.00;;
52964;SDS011;42923;53.220;6.528;2022-11-11T17:20:47;28.88;;;17.63;;
52964;SDS011;42923;53.220;6.528;2022-11-11T17:23:31;31.20;;;20.38;;
52964;SDS011;42923;53.220;6.528;2022-11-11T17:26:15;26.27;;;18.15;;
52964;SDS011;42923;53.220;6.528;2022-11-11T17:29:00;29.60;;;19.63;;
52964;SDS011;42923;53.220;6.528;2022-11-11T17:31:44;30.38;;;19.38;;
52964;SDS011;42923;53.220;6.528;2022-11-11T17:34:28;31.25;;;20.80;;
52964;SDS011;42923;53.220;6.528;2022-11-11T17:37:12;25.88;;;18.30;;
52964;SDS011;42923;53.220;6.528;2022-11-11T17:39:56;33.42;;;20.27;;
52964;SDS011;42923;53.220;6.528;2022-11-11T17:42:40;26.48;;;18.77;;
52964;SDS011;42923;53.220;6.528;2022-11-11T17:45:24;27.15;;;18.98;;
52964;SDS011;42923;53.220;6.528;2022-11-11T17:48:10;24.98;;;18.83;;
52964;SDS011;42923;53.220;6.528;2022-11-11T17:50:55;27.63;;;20.13;;
52964;SDS011;42923;53.220;6.528;2022-11-11T17:53:39;28.95;;;19.17;;
52964;SDS011;42923;53.220;6.528;2022-11-11T17:56:23;30.02;;;19.52;;
52964;SDS011;42923;53.220;6.528;2022-11-11T17:59:09;27.23;;;19.13;;
52964;SDS011;42923;53.220;6.528;2022-11-11T18:01:53;25.75;;;18.55;;
52964;SDS011;42923;53.220;6.528;2022-11-11T18:04:37;25.63;;;17.95;;
52964;SDS011;42923;53.220;6.528;2022-11-11T18:07:22;25.92;;;19.33;;
52964;SDS011;42923;53.220;6.528;2022-11-11T18:10:07;27.20;;;19.02;;
52964;SDS011;42923;53.220;6.528;2022-11-11T18:12:52;27.95;;;19.83;;
52964;SDS011;42923;53.220;6.528;2022-11-11T18:15:36;28.90;;;19.40;;
52964;SDS011;42923;53.220;6.528;2022-11-11T18:18:21;25.83;;;17.38;;
52964;SDS011;42923;53.220;6.528;2022-11-11T18:21:05;27.25;;;18.58;;
52964;SDS011;42923;53.220;6.528;2022-11-11T18:23:50;26.40;;;18.95;;
52964;SDS011;42923;53.220;6.528;2022-11-11T18:26:35;28.42;;;18.35;;
52964;SDS011;42923;53.220;6.528;2022-11-11T18:29:20;27.85;;;18.52;;
52964;SDS011;42923;53.220;6.528;2022-11-11T18:32:04;26.95;;;18.08;;
52964;SDS011;42923;53.220;6.528;2022-11-11T18:34:48;24.75;;;17.02;;
52964;SDS011;42923;53.220;6.528;2022-11-11T18:37:33;24.33;;;17.27;;
52964;SDS011;42923;53.220;6.528;2022-11-11T18:40:19;29.33;;;17.02;;
52964;SDS011;42923;53.220;6.528;2022-11-11T18:43:04;23.67;;;16.80;;
52964;SDS011;42923;53.220;6.528;2022-11-11T18:45:48;27.27;;;17.75;;
52964;SDS011;42923;53.220;6.528;2022-11-11T18:48:33;23.55;;;15.48;;
52964;SDS011;42923;53.220;6.528;2022-11-11T18:51:18;21.17;;;15.48;;
52964;SDS011;42923;53.220;6.528;2022-11-11T18:54:03;22.02;;;15.90;;
52964;SDS011;42923;53.220;6.528;2022-11-11T18:56:48;22.13;;;14.88;;
52964;SDS011;42923;53.220;6.528;2022-11-11T18:59:32;22.00;;;14.85;;
52964;SDS011;42923;53.220;6.528;2022-11-11T19:02:16;21.50;;;15.68;;
52964;SDS011;42923;53.220;6.528;2022-11-11T19:05:00;26.48;;;17.60;;
52964;SDS011;42923;53.220;6.528;2022-11-11T19:07:46;23.27;;;15.95;;
52964;SDS011;42923;53.220;6.528;2022-11-11T19:10:30;21.83;;;15.50;;
52964;SDS011;42923;53.220;6.528;2022-11-11T19:13:14;22.58;;;16.00;;
52964;SDS011;42923;53.220;6.528;2022-11-11T19:16:05;23.45;;;15.98;;
52964;SDS011;42923;53.220;6.528;2022-11-11T19:18:51;24.02;;;14.18;;
52964;SDS011;42923;53.220;6.528;2022-11-11T19:21:36;19.85;;;14.77;;
52964;SDS011;42923;53.220;6.528;2022-11-11T19:24:21;27.17;;;18.63;;